Time;durP1;ratioP1;P1;durP2;ratioP2;P2;SDS_P1;SDS_P2;PMS_P1;PMS_P2;Temp;Humidity;BMP_temperature;BMP_pressure;BME280_temperature;BME280_humidity;BME280_pressure;Samples;Min_cycle;Max_cycle;Signal;HPM_P1;HPM_P2
2022/05/28 00:00:23;;;;;;;;;;;;;;;22.94;78.47;96728.82;609088;233;68482;-72
2022/05/28 00:02:51;;;;;;;;;;;;;;;22.93;78.45;96722.67;609005;233;63072;-72
2022/05/28 00:05:18;;;;;;;;;;;;;;;22.93;78.40;96724.56;609009;233;66480;-72
2022/05/28 00:07:46;;;;;;;;;;;;;;;22.93;78.44;96716.52;608941;233;66390;-72
2022/05/28 00:10:15;;;;;;;;;;;;;;;22.92;78.46;96707.69;609216;232;62993;-72
2022/05/28 00:12:42;;;;;;;;;;;;;;;22.92;78.44;96691.61;610867;232;66484;-72
2022/05/28 00:15:10;;;;;;;;;;;;;;;22.94;78.39;96697.45;610876;232;66395;-72
2022/05/28 00:17:38;;;;;;;;;;;;;;;22.93;78.44;96695.88;610862;232;63014;-72
2022/05/28 00:20:06;;;;;;;;;;;;;;;22.92;78.42;96699.65;610879;232;66440;-72
2022/05/28 00:22:36;;;;;;;;;;;;;;;22.92;78.43;96688.14;610936;232;68420;-72
2022/05/28 00:25:03;;;;;;;;;;;;;;;22.92;78.47;96693.50;610860;232;65322;-72
2022/05/28 00:27:31;;;;;;;;;;;;;;;22.93;78.48;96700.44;610905;232;65928;-72
2022/05/28 00:29:58;;;;;;;;;;;;;;;22.93;78.50;96700.44;610893;232;68292;-72
2022/05/28 00:32:26;;;;;;;;;;;;;;;22.92;78.46;96710.38;610876;232;63010;-72
2022/05/28 00:34:53;;;;;;;;;;;;;;;22.92;78.47;96707.69;610899;232;66509;-72
2022/05/28 00:37:21;;;;;;;;;;;;;;;22.92;78.43;96704.22;610909;232;66446;-73
2022/05/28 00:39:48;;;;;;;;;;;;;;;22.93;78.48;96705.80;610882;232;63064;-72
2022/05/28 00:42:16;;;;;;;;;;;;;;;22.93;78.44;96695.08;610909;232;66099;-72
2022/05/28 00:44:43;;;;;;;;;;;;;;;22.92;78.47;96696.18;610886;232;66238;-72
2022/05/28 00:47:11;;;;;;;;;;;;;;;22.92;78.46;96690.82;610847;232;63862;-73
2022/05/28 00:49:39;;;;;;;;;;;;;;;22.91;78.44;96689.20;610973;232;66170;-72
2022/05/28 00:52:10;;;;;;;;;;;;;;;22.92;78.45;96685.46;610881;232;66204;-72
2022/05/28 00:54:42;;;;;;;;;;;;;;;22.91;78.42;96678.49;610914;232;65391;-72
2022/05/28 00:57:10;;;;;;;;;;;;;;;22.93;78.41;96681.69;610596;232;66169;-71
2022/05/28 00:59:38;;;;;;;;;;;;;;;22.92;78.47;96686.25;610886;232;68281;-72
2022/05/28 01:02:07;;;;;;;;;;;;;;;22.92;78.50;96682.78;610908;232;63299;-72
2022/05/28 01:04:45;;;;;;;;;;;;;;;22.91;78.56;96676.60;610734;232;68342;-71
2022/05/28 01:07:14;;;;;;;;;;;;;;;22.92;78.55;96666.70;610722;232;68260;-71
2022/05/28 01:09:46;;;;;;;;;;;;;;;22.90;78.49;96666.98;610858;232;65360;-71
2022/05/28 01:12:20;;;;;;;;;;;;;;;22.90;78.54;96666.19;610837;231;68938;-71
2022/05/28 01:14:49;;;;;;;;;;;;;;;22.92;78.55;96672.06;610858;232;67997;-71
2022/05/28 01:17:18;;;;;;;;;;;;;;;22.90;78.58;96668.88;610037;232;65164;-71
2022/05/28 01:19:51;;;;;;;;;;;;;;;22.89;78.58;96664.58;610822;232;68309;-71
2022/05/28 01:22:23;;;;;;;;;;;;;;;22.90;78.57;96658.16;610857;232;68520;-71
2022/05/28 01:24:52;;;;;;;;;;;;;;;22.90;78.53;96658.16;610724;232;62966;-73
2022/05/28 01:27:21;;;;;;;;;;;;;;;22.90;78.52;96663.52;610725;232;66197;-73
2022/05/28 01:29:50;;;;;;;;;;;;;;;22.89;78.61;96654.69;610778;232;66144;-73
2022/05/28 01:32:18;;;;;;;;;;;;;;;22.89;78.56;96645.83;610936;232;63066;-73
2022/05/28 01:34:47;;;;;;;;;;;;;;;22.90;78.58;96653.59;610872;232;68291;-73
2022/05/28 01:37:16;;;;;;;;;;;;;;;22.89;78.55;96641.29;610909;232;68496;-73
2022/05/28 01:39:46;;;;;;;;;;;;;;;22.89;78.59;96635.11;610889;232;63033;-74
2022/05/28 01:42:15;;;;;;;;;;;;;;;22.89;78.60;96640.47;610878;232;65964;-73
2022/05/28 01:44:44;;;;;;;;;;;;;;;22.89;78.59;96645.83;610927;232;66110;-73
2022/05/28 01:47:13;;;;;;;;;;;;;;;22.89;78.60;96643.14;610852;232;65538;-74
2022/05/28 01:49:41;;;;;;;;;;;;;;;22.89;78.66;96643.97;610883;232;68832;-73
2022/05/28 01:52:10;;;;;;;;;;;;;;;22.89;78.59;96652.00;610860;232;67234;-73
2022/05/28 01:54:40;;;;;;;;;;;;;;;22.90;78.63;96658.16;610850;232;65168;-73
2022/05/28 01:57:07;;;;;;;;;;;;;;;22.89;78.63;96653.86;610822;232;66112;-73
2022/05/28 01:59:35;;;;;;;;;;;;;;;22.88;78.58;96655.75;610917;232;66145;-73
2022/05/28 02:02:04;;;;;;;;;;;;;;;22.88;78.57;96668.36;610861;232;63879;-73
2022/05/28 02:04:33;;;;;;;;;;;;;;;22.88;78.59;96666.47;610914;232;65796;-73
2022/05/28 02:07:02;;;;;;;;;;;;;;;22.88;78.59;96671.04;610832;232;67210;-73
2022/05/28 02:09:31;;;;;;;;;;;;;;;22.89;78.55;96672.63;610874;232;67193;-73
2022/05/28 02:12:15;;;;;;;;;;;;;;;22.88;78.55;96676.40;610846;231;66308;-73
2022/05/28 02:14:44;;;;;;;;;;;;;;;22.88;78.55;96666.47;610766;232;68460;-72
2022/05/28 02:17:25;;;;;;;;;;;;;;;22.88;78.47;96671.83;610725;230;62992;-72
2022/05/28 02:20:00;;;;;;;;;;;;;;;22.88;78.53;96674.51;610599;232;66148;-73
2022/05/28 02:22:29;;;;;;;;;;;;;;;22.88;78.48;96668.36;610831;232;68220;-72
2022/05/28 02:24:57;;;;;;;;;;;;;;;22.88;78.50;96676.40;610608;232;63084;-72
2022/05/28 02:27:27;;;;;;;;;;;;;;;22.88;78.52;96681.76;610840;230;66228;-73
2022/05/28 02:29:54;;;;;;;;;;;;;;;22.88;78.54;96681.76;610932;232;65876;-72
2022/05/28 02:32:23;;;;;;;;;;;;;;;22.88;78.50;96681.76;610847;232;65477;-73
2022/05/28 02:34:51;;;;;;;;;;;;;;;22.87;78.52;96691.69;610917;232;66149;-71
2022/05/28 02:37:22;;;;;;;;;;;;;;;22.89;78.58;96692.20;610840;232;66517;-72
2022/05/28 02:39:50;;;;;;;;;;;;;;;22.88;78.60;96703.19;610871;232;62801;-71
2022/05/28 02:42:18;;;;;;;;;;;;;;;22.88;78.61;96697.83;610910;232;68542;-72
2022/05/28 02:44:45;;;;;;;;;;;;;;;22.87;78.61;96696.25;610871;231;68300;-72
2022/05/28 02:47:13;;;;;;;;;;;;;;;22.87;78.57;96705.08;610780;232;65361;-71
2022/05/28 02:49:40;;;;;;;;;;;;;;;22.87;78.60;96704.29;610872;232;68355;-71
2022/05/28 02:52:09;;;;;;;;;;;;;;;22.87;78.57;96712.33;610824;232;69285;-71
2022/05/28 02:54:37;;;;;;;;;;;;;;;22.87;78.60;96717.69;610944;232;63272;-71
2022/05/28 02:57:04;;;;;;;;;;;;;;;22.87;78.63;96739.91;610835;232;65945;-71
2022/05/28 02:59:32;;;;;;;;;;;;;;;22.88;78.71;96746.06;610866;232;68260;-71
2022/05/28 03:02:00;;;;;;;;;;;;;;;22.88;78.56;96775.53;610826;232;63053;-71
2022/05/28 03:04:27;;;;;;;;;;;;;;;22.88;78.88;96764.81;610860;232;66432;-73
2022/05/28 03:06:55;;;;;;;;;;;;;;;22.87;78.80;96760.55;610935;232;66100;-72
2022/05/28 03:09:23;;;;;;;;;;;;;;;22.87;78.82;96760.55;610871;232;63261;-72
2022/05/28 03:11:50;;;;;;;;;;;;;;;22.87;78.75;96761.34;610808;231;68165;-73
2022/05/28 03:14:18;;;;;;;;;;;;;;;22.87;78.65;96755.20;610878;232;67266;-72
2022/05/28 03:16:45;;;;;;;;;;;;;;;22.86;78.65;96759.73;610914;232;62971;-72
2022/05/28 03:19:13;;;;;;;;;;;;;;;22.86;78.66;96759.73;610892;232;68123;-72
2022/05/28 03:21:40;;;;;;;;;;;;;;;22.87;78.64;96755.20;610960;232;68096;-73
2022/05/28 03:24:08;;;;;;;;;;;;;;;22.86;78.67;96769.66;610863;232;65150;-71
2022/05/28 03:26:36;;;;;;;;;;;;;;;22.86;78.74;96775.02;610802;232;68186;-71
2022/05/28 03:29:04;;;;;;;;;;;;;;;22.87;78.75;96773.95;610877;232;68084;-70
2022/05/28 03:31:32;;;;;;;;;;;;;;;22.85;78.74;96779.59;610866;232;65559;-70
2022/05/28 03:34:00;;;;;;;;;;;;;;;22.86;78.75;96769.66;610932;232;68040;-70
2022/05/28 03:36:28;;;;;;;;;;;;;;;22.86;78.74;96772.34;610835;232;66811;-71
2022/05/28 03:38:55;;;;;;;;;;;;;;;22.85;78.73;96770.76;610805;232;62977;-70
2022/05/28 03:41:23;;;;;;;;;;;;;;;22.86;78.59;96775.02;610866;232;68073;-71
2022/05/28 03:43:50;;;;;;;;;;;;;;;22.85;78.68;96765.40;610848;232;65959;-71
2022/05/28 03:46:20;;;;;;;;;;;;;;;22.85;78.68;96752.00;610819;232;63016;-70
2022/05/28 03:48:48;;;;;;;;;;;;;;;22.85;78.56;96754.69;610794;231;68353;-71
2022/05/28 03:51:15;;;;;;;;;;;;;;;22.85;78.51;96757.36;610811;232;68599;-70
2022/05/28 03:53:42;;;;;;;;;;;;;;;22.85;78.61;96774.23;610857;232;65438;-71
2022/05/28 03:56:10;;;;;;;;;;;;;;;22.85;78.68;96776.91;610869;232;68338;-70
2022/05/28 03:58:37;;;;;;;;;;;;;;;22.85;78.61;96784.95;610918;232;66194;-70
2022/05/28 04:01:05;;;;;;;;;;;;;;;22.85;78.61;96784.16;610850;232;62965;-70
2022/05/28 04:03:34;;;;;;;;;;;;;;;22.85;78.60;96794.88;610851;232;66128;-70
2022/05/28 04:06:02;;;;;;;;;;;;;;;22.85;78.64;96805.59;610847;232;69081;-70
2022/05/28 04:08:30;;;;;;;;;;;;;;;22.85;78.74;96806.38;610892;232;65115;-71
2022/05/28 04:10:57;;;;;;;;;;;;;;;22.85;78.75;96816.30;610001;231;68146;-71
2022/05/28 04:13:25;;;;;;;;;;;;;;;22.85;78.79;96827.02;609107;233;68181;-71
2022/05/28 04:15:53;;;;;;;;;;;;;;;22.85;78.79;96821.66;609047;233;65098;-71
2022/05/28 04:18:20;;;;;;;;;;;;;;;22.84;78.76;96820.88;609041;233;68694;-71
2022/05/28 04:20:49;;;;;;;;;;;;;;;22.84;78.75;96810.16;610971;232;68215;-71
2022/05/28 04:23:22;;;;;;;;;;;;;;;22.83;78.75;96820.08;611618;232;45076;-70
2022/05/28 04:25:49;;;;;;;;;;;;;;;22.84;78.79;96820.88;611634;232;68486;-70
2022/05/28 04:28:17;;;;;;;;;;;;;;;22.84;78.83;96810.16;611568;232;68248;-71
2022/05/28 04:30:44;;;;;;;;;;;;;;;22.83;78.75;96803.19;611570;232;65135;-71
2022/05/28 04:33:12;;;;;;;;;;;;;;;22.83;78.85;96800.51;611568;232;68727;-71
2022/05/28 04:35:39;;;;;;;;;;;;;;;22.82;78.76;96797.03;611575;232;68465;-71
2022/05/28 04:38:07;;;;;;;;;;;;;;;22.83;78.77;96800.51;611533;232;65422;-71
2022/05/28 04:40:34;;;;;;;;;;;;;;;22.83;78.69;96798.65;611333;232;68624;-70
2022/05/28 04:43:02;;;;;;;;;;;;;;;22.83;78.69;96803.19;611571;232;68477;-71
2022/05/28 04:45:29;;;;;;;;;;;;;;;22.83;78.73;96801.33;611498;232;65169;-71
2022/05/28 04:47:57;;;;;;;;;;;;;;;22.82;78.70;96802.39;611578;232;66146;-70
2022/05/28 04:50:24;;;;;;;;;;;;;;;22.82;78.67;96797.03;611624;232;66440;-71
2022/05/28 04:52:51;;;;;;;;;;;;;;;22.83;78.66;96805.86;611499;232;62951;-71
2022/05/28 04:55:19;;;;;;;;;;;;;;;22.82;78.69;96818.47;611478;232;66380;-70
2022/05/28 04:57:48;;;;;;;;;;;;;;;22.83;78.76;96816.58;611582;232;65865;-70
2022/05/28 05:00:17;;;;;;;;;;;;;;;22.81;78.77;96803.48;611281;232;65162;-70
2022/05/28 05:02:44;;;;;;;;;;;;;;;22.82;78.77;96806.96;611516;232;66636;-72
2022/05/28 05:05:12;;;;;;;;;;;;;;;22.81;78.56;96811.53;611556;232;66725;-72
2022/05/28 05:07:39;;;;;;;;;;;;;;;22.81;75.67;96821.45;611563;232;63940;-69
2022/05/28 05:10:07;;;;;;;;;;;;;;;22.82;77.41;96820.36;611229;232;68681;-72
2022/05/28 05:12:35;;;;;;;;;;;;;;;22.81;78.01;96816.89;609729;232;66516;-71
2022/05/28 05:15:02;;;;;;;;;;;;;;;22.82;77.98;96812.32;610675;232;64264;-71
2022/05/28 05:17:30;;;;;;;;;;;;;;;22.82;77.89;96794.36;610952;232;66417;-70
2022/05/28 05:19:57;;;;;;;;;;;;;;;22.81;77.74;96784.73;610863;232;66459;-70
2022/05/28 05:22:25;;;;;;;;;;;;;;;22.81;77.49;96773.23;610873;232;63869;-71
2022/05/28 05:24:53;;;;;;;;;;;;;;;22.81;77.71;96787.41;610877;232;68305;-71
2022/05/28 05:27:20;;;;;;;;;;;;;;;22.82;77.82;96790.88;610881;232;68631;-71
2022/05/28 05:29:48;;;;;;;;;;;;;;;22.81;77.94;96790.09;610877;232;64115;-71
2022/05/28 05:32:15;;;;;;;;;;;;;;;22.81;78.09;96797.34;610716;232;68883;-71
2022/05/28 05:34:45;;;;;;;;;;;;;;;22.80;78.19;96791.16;610874;232;68498;-71
2022/05/28 05:37:12;;;;;;;;;;;;;;;22.80;78.27;96783.13;610872;232;65123;-70
2022/05/28 05:39:40;;;;;;;;;;;;;;;22.80;78.35;96780.44;610871;232;66764;-70
2022/05/28 05:42:08;;;;;;;;;;;;;;;22.79;78.38;96775.39;610894;232;66433;-70
2022/05/28 05:44:36;;;;;;;;;;;;;;;22.81;78.37;96773.23;610885;232;62956;-70
2022/05/28 05:47:04;;;;;;;;;;;;;;;22.79;78.40;96754.75;610871;232;66713;-71
2022/05/28 05:49:31;;;;;;;;;;;;;;;22.79;78.38;96746.71;610865;232;68746;-71
2022/05/28 05:51:59;;;;;;;;;;;;;;;22.79;78.36;96736.00;610831;232;65312;-70
2022/05/28 05:54:27;;;;;;;;;;;;;;;22.80;78.34;96728.75;610880;232;66523;-71
2022/05/28 05:56:54;;;;;;;;;;;;;;;22.79;78.29;96727.17;610864;232;66500;-71
2022/05/28 05:59:22;;;;;;;;;;;;;;;22.79;78.28;96729.84;610882;232;63905;-70
2022/05/28 06:01:50;;;;;;;;;;;;;;;22.78;78.30;96731.73;610863;232;66432;-72
2022/05/28 06:04:17;;;;;;;;;;;;;;;22.80;78.30;96748.30;610851;232;66638;-72
2022/05/28 06:06:45;;;;;;;;;;;;;;;22.79;78.24;96748.59;610839;232;65036;-72
2022/05/28 06:09:12;;;;;;;;;;;;;;;22.79;78.22;96732.52;610839;232;68623;-72
2022/05/28 06:11:40;;;;;;;;;;;;;;;22.77;77.29;96732.01;610794;232;66280;-72
2022/05/28 06:14:07;;;;;;;;;;;;;;;22.78;78.08;96723.70;611545;232;62993;-72
2022/05/28 06:16:35;;;;;;;;;;;;;;;22.78;77.35;96721.02;611570;232;66436;-72
2022/05/28 06:19:03;;;;;;;;;;;;;;;22.80;77.26;96724.18;611579;232;66752;-72
2022/05/28 06:21:30;;;;;;;;;;;;;;;22.81;77.56;96712.40;611526;232;65438;-72
2022/05/28 06:23:59;;;;;;;;;;;;;;;22.81;77.64;96704.36;611562;232;68753;-72
2022/05/28 06:26:27;;;;;;;;;;;;;;;22.82;77.54;96691.75;611561;232;68500;-72
2022/05/28 06:28:55;;;;;;;;;;;;;;;22.81;77.65;96682.92;611539;232;65080;-72
2022/05/28 06:31:23;;;;;;;;;;;;;;;22.81;77.64;96677.57;611632;232;66463;-71
2022/05/28 06:33:50;;;;;;;;;;;;;;;22.83;77.71;96675.41;611487;232;66492;-71
2022/05/28 06:36:18;;;;;;;;;;;;;;;22.82;77.60;96684.51;611549;232;65055;-71
2022/05/28 06:38:45;;;;;;;;;;;;;;;22.83;77.62;96691.48;611550;232;68334;-71
2022/05/28 06:41:13;;;;;;;;;;;;;;;22.83;77.60;96683.44;611559;232;67350;-71
2022/05/28 06:43:40;;;;;;;;;;;;;;;22.83;77.52;96683.44;611565;232;65135;-71
2022/05/28 06:46:09;;;;;;;;;;;;;;;22.83;77.58;96672.72;611523;232;66760;-71
2022/05/28 06:48:36;;;;;;;;;;;;;;;22.85;77.42;96676.98;611548;232;68776;-71
2022/05/28 06:51:05;;;;;;;;;;;;;;;22.85;77.37;96671.63;611476;232;65389;-71
2022/05/28 06:53:34;;;;;;;;;;;;;;;22.85;77.42;96660.91;611521;232;66427;-71
2022/05/28 06:56:02;;;;;;;;;;;;;;;22.85;77.37;96661.70;611523;232;67391;-71
2022/05/28 06:58:29;;;;;;;;;;;;;;;22.85;77.31;96644.83;611587;232;65317;-71
2022/05/28 07:00:57;;;;;;;;;;;;;;;22.86;77.33;96633.02;611550;230;68608;-71
2022/05/28 07:03:26;;;;;;;;;;;;;;;22.85;77.30;96624.19;611528;232;69290;-71
2022/05/28 07:05:55;;;;;;;;;;;;;;;22.87;77.34;96623.91;611541;232;65430;-71
2022/05/28 07:08:23;;;;;;;;;;;;;;;22.86;77.34;96619.63;611516;232;68954;-71
2022/05/28 07:10:53;;;;;;;;;;;;;;;22.87;77.39;96621.23;610818;232;68578;-70
2022/05/28 07:13:21;;;;;;;;;;;;;;;22.86;77.19;96622.30;608819;232;63069;-71
2022/05/28 07:15:49;;;;;;;;;;;;;;;22.86;77.22;96604.33;610825;232;68886;-72
2022/05/28 07:18:16;;;;;;;;;;;;;;;22.86;77.26;96592.83;610844;232;68695;-72
2022/05/28 07:20:44;;;;;;;;;;;;;;;22.86;77.13;96593.62;610851;232;63258;-72
2022/05/28 07:23:13;;;;;;;;;;;;;;;22.88;77.13;96585.30;610919;232;66421;-72
2022/05/28 07:25:41;;;;;;;;;;;;;;;22.87;77.13;96599.80;610870;232;65765;-72
2022/05/28 07:30:55;;;;;;;;;;;;;;;22.87;76.98;96595.23;610876;232;68393;-73
2022/05/28 07:33:25;;;;;;;;;;;;;;;22.88;77.04;96582.62;610809;232;66470;-72
2022/05/28 07:35:53;;;;;;;;;;;;;;;22.89;77.02;96581.52;610898;232;64970;-73
2022/05/28 07:38:21;;;;;;;;;;;;;;;22.88;77.06;96582.62;610893;232;66319;-72
2022/05/28 07:40:50;;;;;;;;;;;;;;;22.88;77.04;96577.27;610873;232;66019;-72
2022/05/28 07:43:18;;;;;;;;;;;;;;;22.88;77.03;96574.58;610858;232;65531;-73
2022/05/28 07:45:46;;;;;;;;;;;;;;;22.89;77.04;96576.16;610880;232;68481;-72
2022/05/28 07:48:15;;;;;;;;;;;;;;;22.88;77.06;96561.19;610829;232;68459;-72
2022/05/28 07:50:42;;;;;;;;;;;;;;;22.89;76.99;96565.45;610892;232;65086;-72
2022/05/28 07:53:10;;;;;;;;;;;;;;;22.89;76.98;96565.45;610852;232;68196;-72
2022/05/28 07:55:38;;;;;;;;;;;;;;;22.88;76.98;96561.19;610842;232;68484;-73
2022/05/28 07:58:10;;;;;;;;;;;;;;;22.89;77.00;96568.95;610851;232;62986;-72
2022/05/28 08:00:38;;;;;;;;;;;;;;;22.89;76.95;96565.45;610641;232;66751;-71
2022/05/28 08:03:06;;;;;;;;;;;;;;;22.89;76.95;96565.45;610856;232;66436;-72
2022/05/28 08:05:33;;;;;;;;;;;;;;;22.89;76.92;96566.27;610923;232;63078;-71
2022/05/28 08:08:01;;;;;;;;;;;;;;;22.89;76.89;96568.95;610906;232;66452;-72
2022/05/28 08:10:28;;;;;;;;;;;;;;;22.89;77.01;96566.27;610662;232;68490;-72
2022/05/28 08:12:57;;;;;;;;;;;;;;;22.89;77.04;96566.27;610346;232;65495;-72
2022/05/28 08:15:25;;;;;;;;;;;;;;;22.91;77.08;96564.06;610299;232;69427;-71
2022/05/28 08:17:52;;;;;;;;;;;;;;;22.90;77.11;96565.16;610812;232;68480;-72
2022/05/28 08:23:08;;;;;;;;;;;;;;;22.90;77.10;96561.70;611571;232;65325;-71
2022/05/28 08:25:34;;;;;;;;;;;;;;;22.91;77.13;96555.23;611581;232;68573;-72
2022/05/28 08:28:02;;;;;;;;;;;;;;;22.89;77.13;96558.23;611562;232;62813;-72
2022/05/28 08:30:29;;;;;;;;;;;;;;;22.90;77.17;96548.30;611539;232;66396;-72
2022/05/28 08:32:57;;;;;;;;;;;;;;;22.89;77.15;96552.87;611580;232;66418;-72
2022/05/28 08:35:24;;;;;;;;;;;;;;;22.90;77.17;96550.98;611550;232;64985;-72
2022/05/28 08:37:52;;;;;;;;;;;;;;;22.90;77.15;96553.66;611576;232;68709;-73
2022/05/28 08:40:19;;;;;;;;;;;;;;;22.89;77.10;96560.91;611587;232;68239;-73
2022/05/28 08:42:47;;;;;;;;;;;;;;;22.90;77.09;96551.77;611528;232;62954;-73
2022/05/28 08:45:15;;;;;;;;;;;;;;;22.90;77.20;96559.80;611588;232;66400;-72
2022/05/28 08:47:44;;;;;;;;;;;;;;;22.90;77.10;96550.98;611530;232;66764;-73
2022/05/28 08:50:12;;;;;;;;;;;;;;;22.90;77.11;96559.02;611563;232;63039;-73
2022/05/28 08:52:44;;;;;;;;;;;;;;;22.90;77.21;96554.45;611586;232;68594;-73
2022/05/28 08:55:13;;;;;;;;;;;;;;;22.90;77.17;96548.30;611145;232;66474;-73
2022/05/28 08:57:53;;;;;;;;;;;;;;;22.90;77.21;96550.98;611299;232;65408;-72
2022/05/28 09:00:22;;;;;;;;;;;;;;;22.90;77.20;96545.63;611614;232;66422;-74
2022/05/28 09:02:51;;;;;;;;;;;;;;;22.92;77.18;96546.13;611503;232;68192;-74
2022/05/28 09:05:20;;;;;;;;;;;;;;;22.90;77.22;96541.05;611536;232;63335;-73
2022/05/28 09:07:48;;;;;;;;;;;;;;;22.90;77.25;96530.33;611425;232;66169;-74
2022/05/28 09:10:18;;;;;;;;;;;;;;;22.91;77.28;96539.16;611060;232;49830;-73
2022/05/28 09:12:47;;;;;;;;;;;;;;;22.90;77.31;96534.90;609011;233;65404;-73
2022/05/28 09:15:14;;;;;;;;;;;;;;;22.92;77.25;96530.05;609001;233;68912;-74
2022/05/28 09:17:46;;;;;;;;;;;;;;;22.90;77.26;96535.69;609027;233;68545;-74
2022/05/28 09:20:16;;;;;;;;;;;;;;;22.90;77.27;96524.19;609092;232;45268;-73
2022/05/28 09:22:44;;;;;;;;;;;;;;;22.90;77.33;96522.30;609003;233;68678;-74
2022/05/28 09:25:12;;;;;;;;;;;;;;;22.90;77.34;96522.30;609044;233;68565;-73
2022/05/28 09:27:53;;;;;;;;;;;;;;;22.90;77.30;96529.55;609060;233;65480;-73
2022/05/28 09:30:26;;;;;;;;;;;;;;;22.92;77.17;96532.73;609037;233;66241;-73
2022/05/28 09:33:07;;;;;;;;;;;;;;;22.92;77.13;96535.41;608986;233;66430;-72
2022/05/28 09:35:48;;;;;;;;;;;;;;;22.92;77.11;96530.05;608858;233;63132;-74
2022/05/28 09:38:17;;;;;;;;;;;;;;;22.92;77.17;96527.38;608995;233;66435;-72
2022/05/28 09:40:49;;;;;;;;;;;;;;;22.91;77.14;96520.41;608173;233;66326;-72
2022/05/28 09:43:35;;;;;;;;;;;;;;;22.91;77.17;96523.08;609009;233;65493;-73
2022/05/28 09:46:12;;;;;;;;;;;;;;;22.91;77.21;96525.77;609052;233;68637;-73
2022/05/28 09:48:40;;;;;;;;;;;;;;;22.90;77.11;96524.19;608873;233;66397;-74
2022/05/28 09:51:21;;;;;;;;;;;;;;;22.90;77.14;96516.14;608996;233;62963;-73
2022/05/28 09:56:39;;;;;;;;;;;;;;;22.90;77.12;96518.83;609022;233;68339;-74
2022/05/28 09:59:10;;;;;;;;;;;;;;;22.89;77.10;96528.75;608984;233;63033;-71
2022/05/28 10:01:37;;;;;;;;;;;;;;;22.91;77.10;96520.41;608757;233;68598;-72
2022/05/28 10:06:53;;;;;;;;;;;;;;;22.91;77.09;96523.08;609005;233;64172;-72
2022/05/28 10:09:22;;;;;;;;;;;;;;;22.91;77.19;96517.73;609016;233;68892;-72
2022/05/28 10:11:50;;;;;;;;;;;;;;;22.90;77.21;96519.61;608952;232;68621;-71
2022/05/28 10:14:18;;;;;;;;;;;;;;;22.90;77.12;96527.66;608994;233;65419;-72
2022/05/28 10:16:49;;;;;;;;;;;;;;;22.91;77.13;96529.23;609029;233;68620;-72
2022/05/28 10:19:18;;;;;;;;;;;;;;;22.91;77.18;96526.55;609016;233;66439;-72
2022/05/28 10:21:47;;;;;;;;;;;;;;;22.92;77.08;96524.69;609027;233;65560;-72
2022/05/28 10:24:22;;;;;;;;;;;;;;;22.92;77.16;96524.69;608932;232;68384;-72
2022/05/28 10:26:49;;;;;;;;;;;;;;;22.92;77.14;96533.52;608561;233;68740;-72
2022/05/28 10:29:21;;;;;;;;;;;;;;;22.92;77.11;96527.38;608942;233;65517;-72
2022/05/28 10:31:50;;;;;;;;;;;;;;;22.91;77.07;96523.88;609057;233;68732;-72
2022/05/28 10:34:28;;;;;;;;;;;;;;;22.91;77.12;96515.05;608965;233;67639;-72
2022/05/28 10:36:57;;;;;;;;;;;;;;;22.91;77.14;96515.05;609001;233;62978;-71
2022/05/28 10:39:25;;;;;;;;;;;;;;;22.92;77.06;96517.44;608694;233;66446;-71
2022/05/28 10:41:53;;;;;;;;;;;;;;;22.92;77.12;96519.34;608988;233;68368;-71
2022/05/28 10:44:23;;;;;;;;;;;;;;;22.92;77.12;96509.41;609046;233;65202;-71
2022/05/28 10:47:08;;;;;;;;;;;;;;;22.92;77.09;96505.94;608995;233;66469;-71
2022/05/28 10:49:55;;;;;;;;;;;;;;;22.93;77.09;96496.80;609000;233;68547;-71
2022/05/28 10:52:31;;;;;;;;;;;;;;;22.92;77.03;96500.58;608979;233;63319;-72
2022/05/28 10:55:06;;;;;;;;;;;;;;;22.92;77.01;96495.22;608947;233;66404;-71
2022/05/28 10:57:52;;;;;;;;;;;;;;;22.92;77.00;96496.01;609008;233;68552;-72
2022/05/28 11:00:21;;;;;;;;;;;;;;;22.92;76.93;96506.72;608975;233;63224;-71
2022/05/28 11:02:52;;;;;;;;;;;;;;;22.92;76.99;96508.61;608995;233;66429;-71
2022/05/28 11:05:24;;;;;;;;;;;;;;;22.92;76.93;96506.72;608696;233;68545;-71
2022/05/28 11:08:10;;;;;;;;;;;;;;;22.92;76.93;96514.77;608995;233;63112;-71
2022/05/28 11:10:42;;;;;;;;;;;;;;;22.93;76.87;96518.23;609587;232;68705;-71
2022/05/28 11:13:27;;;;;;;;;;;;;;;22.92;76.94;96513.97;610924;232;68277;-71
2022/05/28 11:16:05;;;;;;;;;;;;;;;22.91;77.00;96504.33;610147;232;65344;-72
2022/05/28 11:18:37;;;;;;;;;;;;;;;22.93;76.97;96508.30;608975;233;68681;-72
2022/05/28 11:21:09;;;;;;;;;;;;;;;22.92;76.99;96489.86;608738;233;68854;-72
2022/05/28 11:23:47;;;;;;;;;;;;;;;22.92;76.95;96484.50;609039;233;63000;-72
2022/05/28 11:26:33;;;;;;;;;;;;;;;22.92;76.99;96479.93;608986;230;68676;-72
2022/05/28 11:29:17;;;;;;;;;;;;;;;22.93;76.96;96480.72;608990;233;68506;-72
2022/05/28 11:31:46;;;;;;;;;;;;;;;22.93;76.96;96478.04;608969;233;63257;-71
2022/05/28 11:34:15;;;;;;;;;;;;;;;22.92;76.99;96469.21;608913;233;68636;-71
2022/05/28 11:36:44;;;;;;;;;;;;;;;22.92;76.99;96468.42;608978;232;66164;-71
2022/05/28 11:39:23;;;;;;;;;;;;;;;22.93;76.93;96467.32;608745;233;63938;-71
2022/05/28 11:41:54;;;;;;;;;;;;;;;22.92;76.93;96457.70;609062;233;68805;-71
2022/05/28 11:44:24;;;;;;;;;;;;;;;22.92;76.94;96460.39;609020;233;68439;-71
2022/05/28 11:47:08;;;;;;;;;;;;;;;22.94;76.89;96458.19;608990;233;63103;-71
2022/05/28 11:52:42;;;;;;;;;;;;;;;22.92;76.84;96447.78;596128;238;66163;-72
2022/05/28 11:55:11;;;;;;;;;;;;;;;22.93;76.81;96446.67;606366;232;65533;-70
2022/05/28 11:58:00;;;;;;;;;;;;;;;22.93;76.84;96444.00;609019;233;68490;-71
2022/05/28 12:00:29;;;;;;;;;;;;;;;22.93;76.75;96445.89;609085;233;68264;-72
2022/05/28 12:02:58;;;;;;;;;;;;;;;22.93;76.78;96449.35;609039;233;66021;-72
2022/05/28 12:05:27;;;;;;;;;;;;;;;22.94;76.73;96444.78;608989;232;68499;-72
2022/05/28 12:08:05;;;;;;;;;;;;;;;22.93;76.78;96444.00;608493;233;68654;-72
2022/05/28 12:10:40;;;;;;;;;;;;;;;22.94;76.72;96439.42;609449;232;65356;-72
2022/05/28 12:13:09;;;;;;;;;;;;;;;22.93;76.76;96441.31;609898;231;66460;-73
2022/05/28 12:15:39;;;;;;;;;;;;;;;22.94;76.72;96436.75;609517;232;68728;-73
2022/05/28 12:18:07;;;;;;;;;;;;;;;22.95;76.73;96441.03;609907;232;65443;-73
2022/05/28 12:20:37;;;;;;;;;;;;;;;22.93;76.79;96433.28;610128;232;68666;-73
2022/05/28 12:23:05;;;;;;;;;;;;;;;22.93;76.82;96430.59;609815;232;68355;-73
2022/05/28 12:25:35;;;;;;;;;;;;;;;22.94;76.81;96434.06;610352;230;65089;-72
2022/05/28 12:28:10;;;;;;;;;;;;;;;22.94;76.81;96439.42;610294;230;68785;-73
2022/05/28 12:30:44;;;;;;;;;;;;;;;22.94;76.95;96434.86;610358;232;68309;-73
2022/05/28 12:33:21;;;;;;;;;;;;;;;22.94;76.96;96437.53;610309;232;65364;-73
2022/05/28 12:35:50;;;;;;;;;;;;;;;22.94;76.95;96428.70;610237;232;68788;-73
2022/05/28 12:38:19;;;;;;;;;;;;;;;22.94;76.95;96431.39;610845;232;68961;-72
2022/05/28 12:40:57;;;;;;;;;;;;;;;22.94;76.98;96417.98;610162;232;63237;-73
2022/05/28 12:43:29;;;;;;;;;;;;;;;22.95;77.05;96430.31;610935;232;68835;-73
2022/05/28 12:45:58;;;;;;;;;;;;;;;22.95;76.93;96427.63;610867;232;66417;-73
2022/05/28 12:48:33;;;;;;;;;;;;;;;22.94;76.92;96426.81;610877;232;65329;-73
2022/05/28 12:51:05;;;;;;;;;;;;;;;22.94;76.88;96421.45;610600;232;66448;-73
2022/05/28 12:53:34;;;;;;;;;;;;;;;22.94;76.89;96424.14;610852;232;67348;-73
2022/05/28 12:56:03;;;;;;;;;;;;;;;22.95;76.88;96419.59;610931;232;65037;-72
2022/05/28 12:58:32;;;;;;;;;;;;;;;22.95;76.95;96424.95;610930;232;68317;-72
2022/05/28 13:01:01;;;;;;;;;;;;;;;22.95;76.89;96425.74;610850;232;68730;-72
2022/05/28 13:03:33;;;;;;;;;;;;;;;22.95;76.85;96411.56;610804;232;63057;-72
2022/05/28 13:06:08;;;;;;;;;;;;;;;22.96;76.84;96421.20;609693;232;68893;-73
2022/05/28 13:08:37;;;;;;;;;;;;;;;22.96;76.80;96410.48;610859;232;68725;-72
2022/05/28 13:11:07;;;;;;;;;;;;;;;22.96;76.79;96405.13;609547;231;65139;-72
2022/05/28 13:13:53;;;;;;;;;;;;;;;22.96;76.86;96410.48;608491;233;48716;-72